sensor_id;sensor_type;location;lat;lon;timestamp;temperature;humidity
26687;DHT22;14298;50.900;4.648;2022-11-24T00:01:28;8.40;97.10
26687;DHT22;14298;50.900;4.648;2022-11-24T00:03:59;8.40;97.10
26687;DHT22;14298;50.900;4.648;2022-11-24T00:06:29;8.40;97.10
26687;DHT22;14298;50.900;4.648;2022-11-24T00:08:58;8.40;97.10
26687;DHT22;14298;50.900;4.648;2022-11-24T00:11:32;8.40;97.10
26687;DHT22;14298;50.900;4.648;2022-11-24T00:14:02;8.40;97.10
26687;DHT22;14298;50.900;4.648;2022-11-24T00:16:32;8.40;97.10
26687;DHT22;14298;50.900;4.648;2022-11-24T00:19:04;8.40;97.10
26687;DHT22;14298;50.900;4.648;2022-11-24T00:21:33;8.50;97.10
26687;DHT22;14298;50.900;4.648;2022-11-24T00:24:02;8.50;97.10
26687;DHT22;14298;50.900;4.648;2022-11-24T00:26:33;8.50;97.10
26687;DHT22;14298;50.900;4.648;2022-11-24T00:29:05;8.50;97.10
26687;DHT22;14298;50.900;4.648;2022-11-24T00:31:36;8.50;97.10
26687;DHT22;14298;50.900;4.648;2022-11-24T00:34:09;8.40;97.10
26687;DHT22;14298;50.900;4.648;2022-11-24T00:36:37;8.50;97.10
26687;DHT22;14298;50.900;4.648;2022-11-24T00:39:13;8.50;97.10
26687;DHT22;14298;50.900;4.648;2022-11-24T00:41:56;8.50;97.10
26687;DHT22;14298;50.900;4.648;2022-11-24T00:44:25;8.40;97.10
26687;DHT22;14298;50.900;4.648;2022-11-24T00:46:53;8.40;97.10
26687;DHT22;14298;50.900;4.648;2022-11-24T00:49:21;8.40;97.10
26687;DHT22;14298;50.900;4.648;2022-11-24T00:51:49;8.40;97.10
26687;DHT22;14298;50.900;4.648;2022-11-24T00:54:18;8.50;97.10
26687;DHT22;14298;50.900;4.648;2022-11-24T00:56:46;8.50;97.10
26687;DHT22;14298;50.900;4.648;2022-11-24T00:59:15;8.50;97.10
26687;DHT22;14298;50.900;4.648;2022-11-24T01:01:43;8.50;97.10
26687;DHT22;14298;50.900;4.648;2022-11-24T01:04:11;8.50;97.10
26687;DHT22;14298;50.900;4.648;2022-11-24T01:06:40;8.40;97.10
26687;DHT22;14298;50.900;4.648;2022-11-24T01:09:09;8.50;97.10
26687;DHT22;14298;50.900;4.648;2022-11-24T01:11:39;8.50;97.10
26687;DHT22;14298;50.900;4.648;2022-11-24T01:14:25;8.50;97.10
26687;DHT22;14298;50.900;4.648;2022-11-24T01:16:54;8.50;97.10
26687;DHT22;14298;50.900;4.648;2022-11-24T01:19:23;8.50;97.10
26687;DHT22;14298;50.900;4.648;2022-11-24T01:21:52;8.50;97.10
26687;DHT22;14298;50.900;4.648;2022-11-24T01:24:20;8.50;97.10
26687;DHT22;14298;50.900;4.648;2022-11-24T01:26:48;8.60;97.10
26687;DHT22;14298;50.900;4.648;2022-11-24T01:29:17;8.60;97.10
26687;DHT22;14298;50.900;4.648;2022-11-24T01:31:45;8.60;97.10
26687;DHT22;14298;50.900;4.648;2022-11-24T01:34:13;8.70;97.10
26687;DHT22;14298;50.900;4.648;2022-11-24T01:36:41;8.70;97.10
26687;DHT22;14298;50.900;4.648;2022-11-24T01:39:10;8.60;97.10
26687;DHT22;14298;50.900;4.648;2022-11-24T01:41:39;8.60;97.10
26687;DHT22;14298;50.900;4.648;2022-11-24T01:44:25;8.60;97.10
26687;DHT22;14298;50.900;4.648;2022-11-24T01:47:04;8.60;97.10
26687;DHT22;14298;50.900;4.648;2022-11-24T01:49:44;8.60;97.10
26687;DHT22;14298;50.900;4.648;2022-11-24T01:52:18;8.60;97.10
26687;DHT22;14298;50.900;4.648;2022-11-24T01:54:52;8.70;97.10
26687;DHT22;14298;50.900;4.648;2022-11-24T01:57:26;8.70;97.10
26687;DHT22;14298;50.900;4.648;2022-11-24T01:59:58;8.70;97.10
26687;DHT22;14298;50.900;4.648;2022-11-24T02:02:28;8.70;97.10
26687;DHT22;14298;50.900;4.648;2022-11-24T02:05:00;8.70;97.10
26687;DHT22;14298;50.900;4.648;2022-11-24T02:07:28;8.70;97.10
26687;DHT22;14298;50.900;4.648;2022-11-24T02:10:07;8.60;97.10
26687;DHT22;14298;50.900;4.648;2022-11-24T02:12:39;8.70;97.10
26687;DHT22;14298;50.900;4.648;2022-11-24T02:15:08;8.70;97.10
26687;DHT22;14298;50.900;4.648;2022-11-24T02:17:38;8.70;97.10
26687;DHT22;14298;50.900;4.648;2022-11-24T02:20:08;8.80;97.10
26687;DHT22;14298;50.900;4.648;2022-11-24T02:25:59;8.90;97.10
26687;DHT22;14298;50.900;4.648;2022-11-24T02:28:27;8.90;97.10
26687;DHT22;14298;50.900;4.648;2022-11-24T02:30:58;8.90;97.10
26687;DHT22;14298;50.900;4.648;2022-11-24T02:33:28;8.90;97.10
26687;DHT22;14298;50.900;4.648;2022-11-24T02:35:57;8.90;97.10
26687;DHT22;14298;50.900;4.648;2022-11-24T02:38:35;9.00;97.10
26687;DHT22;14298;50.900;4.648;2022-11-24T02:41:07;9.10;97.10
26687;DHT22;14298;50.900;4.648;2022-11-24T02:43:45;9.10;97.10
26687;DHT22;14298;50.900;4.648;2022-11-24T02:46:08;9.10;97.10
26687;DHT22;14298;50.900;4.648;2022-11-24T02:48:37;9.10;97.10
26687;DHT22;14298;50.900;4.648;2022-11-24T02:51:06;9.20;97.10
26687;DHT22;14298;50.900;4.648;2022-11-24T02:53:34;9.20;97.10
26687;DHT22;14298;50.900;4.648;2022-11-24T02:56:02;9.20;97.10
26687;DHT22;14298;50.900;4.648;2022-11-24T02:58:31;9.30;97.10
26687;DHT22;14298;50.900;4.648;2022-11-24T03:00:59;9.30;97.10
26687;DHT22;14298;50.900;4.648;2022-11-24T03:03:28;9.40;97.10
26687;DHT22;14298;50.900;4.648;2022-11-24T03:05:56;9.40;97.10
26687;DHT22;14298;50.900;4.648;2022-11-24T03:08:24;9.40;97.10
26687;DHT22;14298;50.900;4.648;2022-11-24T03:10:52;9.40;97.10
26687;DHT22;14298;50.900;4.648;2022-11-24T03:13:21;9.30;97.10
26687;DHT22;14298;50.900;4.648;2022-11-24T03:15:49;9.30;97.10
26687;DHT22;14298;50.900;4.648;2022-11-24T03:18:18;9.30;97.10
26687;DHT22;14298;50.900;4.648;2022-11-24T03:20:46;9.30;97.10
26687;DHT22;14298;50.900;4.648;2022-11-24T03:23:14;9.30;97.10
26687;DHT22;14298;50.900;4.648;2022-11-24T03:25:43;9.20;97.10
26687;DHT22;14298;50.900;4.648;2022-11-24T03:28:11;9.20;97.10
26687;DHT22;14298;50.900;4.648;2022-11-24T03:30:39;9.20;97.10
26687;DHT22;14298;50.900;4.648;2022-11-24T03:33:07;9.10;97.10
26687;DHT22;14298;50.900;4.648;2022-11-24T03:35:36;9.10;97.10
26687;DHT22;14298;50.900;4.648;2022-11-24T03:38:04;9.10;97.10
26687;DHT22;14298;50.900;4.648;2022-11-24T03:40:32;9.10;97.10
26687;DHT22;14298;50.900;4.648;2022-11-24T03:43:01;9.10;97.10
26687;DHT22;14298;50.900;4.648;2022-11-24T03:45:29;9.10;97.10
26687;DHT22;14298;50.900;4.648;2022-11-24T03:47:57;9.10;97.10
26687;DHT22;14298;50.900;4.648;2022-11-24T03:50:26;9.10;97.10
26687;DHT22;14298;50.900;4.648;2022-11-24T03:52:54;9.10;97.10
26687;DHT22;14298;50.900;4.648;2022-11-24T03:55:22;9.10;97.10
26687;DHT22;14298;50.900;4.648;2022-11-24T03:57:51;9.10;97.10
26687;DHT22;14298;50.900;4.648;2022-11-24T04:00:19;9.10;97.10
26687;DHT22;14298;50.900;4.648;2022-11-24T04:02:47;9.10;97.10
26687;DHT22;14298;50.900;4.648;2022-11-24T04:05:16;9.10;97.10
26687;DHT22;14298;50.900;4.648;2022-11-24T04:07:44;9.10;97.10
26687;DHT22;14298;50.900;4.648;2022-11-24T04:10:13;9.00;97.10
26687;DHT22;14298;50.900;4.648;2022-11-24T04:12:41;9.00;97.10
26687;DHT22;14298;50.900;4.648;2022-11-24T04:15:14;9.10;97.10
26687;DHT22;14298;50.900;4.648;2022-11-24T04:17:44;9.10;97.10
26687;DHT22;14298;50.900;4.648;2022-11-24T04:20:13;9.10;97.10
26687;DHT22;14298;50.900;4.648;2022-11-24T04:22:42;9.00;97.10
26687;DHT22;14298;50.900;4.648;2022-11-24T04:25:11;9.00;97.10
26687;DHT22;14298;50.900;4.648;2022-11-24T04:27:39;8.90;97.10
26687;DHT22;14298;50.900;4.648;2022-11-24T04:30:08;8.80;97.10
26687;DHT22;14298;50.900;4.648;2022-11-24T04:32:36;8.90;97.10
26687;DHT22;14298;50.900;4.648;2022-11-24T04:35:05;8.90;97.10
26687;DHT22;14298;50.900;4.648;2022-11-24T04:37:34;8.80;97.10
26687;DHT22;14298;50.900;4.648;2022-11-24T04:40:03;8.70;97.10
26687;DHT22;14298;50.900;4.648;2022-11-24T04:42:32;8.70;97.10
26687;DHT22;14298;50.900;4.648;2022-11-24T04:45:00;8.60;97.10
26687;DHT22;14298;50.900;4.648;2022-11-24T04:47:28;8.60;97.10
26687;DHT22;14298;50.900;4.648;2022-11-24T04:49:57;8.60;97.10
26687;DHT22;14298;50.900;4.648;2022-11-24T04:52:25;8.50;97.10
26687;DHT22;14298;50.900;4.648;2022-11-24T04:54:53;8.50;97.10
26687;DHT22;14298;50.900;4.648;2022-11-24T04:57:24;8.50;97.10
26687;DHT22;14298;50.900;4.648;2022-11-24T04:59:54;8.40;97.10
26687;DHT22;14298;50.900;4.648;2022-11-24T05:02:22;8.40;97.10
26687;DHT22;14298;50.900;4.648;2022-11-24T05:04:51;8.40;97.10
26687;DHT22;14298;50.900;4.648;2022-11-24T05:07:19;8.40;97.10
26687;DHT22;14298;50.900;4.648;2022-11-24T05:09:47;8.40;97.10
26687;DHT22;14298;50.900;4.648;2022-11-24T05:12:34;8.30;97.10
26687;DHT22;14298;50.900;4.648;2022-11-24T05:15:04;8.20;97.10
26687;DHT22;14298;50.900;4.648;2022-11-24T05:17:35;8.20;97.10
26687;DHT22;14298;50.900;4.648;2022-11-24T05:20:05;8.10;97.10
26687;DHT22;14298;50.900;4.648;2022-11-24T05:22:34;8.10;97.10
26687;DHT22;14298;50.900;4.648;2022-11-24T05:25:21;8.20;97.10
26687;DHT22;14298;50.900;4.648;2022-11-24T05:27:49;8.20;97.10
26687;DHT22;14298;50.900;4.648;2022-11-24T05:30:18;8.20;97.10
26687;DHT22;14298;50.900;4.648;2022-11-24T05:32:46;8.10;97.10
26687;DHT22;14298;50.900;4.648;2022-11-24T05:35:15;8.10;97.10
26687;DHT22;14298;50.900;4.648;2022-11-24T05:37:43;8.10;97.10
26687;DHT22;14298;50.900;4.648;2022-11-24T05:40:12;8.10;97.10
26687;DHT22;14298;50.900;4.648;2022-11-24T05:42:40;8.00;97.10
26687;DHT22;14298;50.900;4.648;2022-11-24T05:45:11;8.00;97.10
26687;DHT22;14298;50.900;4.648;2022-11-24T05:47:41;8.00;97.10
26687;DHT22;14298;50.900;4.648;2022-11-24T05:50:11;8.00;97.10
26687;DHT22;14298;50.900;4.648;2022-11-24T05:52:40;8.00;97.10
26687;DHT22;14298;50.900;4.648;2022-11-24T05:55:09;8.00;97.10
26687;DHT22;14298;50.900;4.648;2022-11-24T05:57:37;8.00;97.10
26687;DHT22;14298;50.900;4.648;2022-11-24T06:00:07;8.10;97.10
26687;DHT22;14298;50.900;4.648;2022-11-24T06:02:35;8.00;97.10
26687;DHT22;14298;50.900;4.648;2022-11-24T06:05:04;8.00;97.10
26687;DHT22;14298;50.900;4.648;2022-11-24T06:07:32;8.00;97.10
26687;DHT22;14298;50.900;4.648;2022-11-24T06:10:00;8.00;97.10
26687;DHT22;14298;50.900;4.648;2022-11-24T06:12:29;8.00;97.10
26687;DHT22;14298;50.900;4.648;2022-11-24T06:14:57;7.90;97.10
26687;DHT22;14298;50.900;4.648;2022-11-24T06:17:25;7.90;97.10
26687;DHT22;14298;50.900;4.648;2022-11-24T06:19:53;7.90;97.10
26687;DHT22;14298;50.900;4.648;2022-11-24T06:22:22;7.90;97.10
26687;DHT22;14298;50.900;4.648;2022-11-24T06:24:50;7.90;97.10
26687;DHT22;14298;50.900;4.648;2022-11-24T06:27:18;7.80;97.10
26687;DHT22;14298;50.900;4.648;2022-11-24T06:29:47;7.80;97.10
26687;DHT22;14298;50.900;4.648;2022-11-24T06:32:15;7.80;97.10
26687;DHT22;14298;50.900;4.648;2022-11-24T06:34:44;7.90;97.10
26687;DHT22;14298;50.900;4.648;2022-11-24T06:37:12;7.90;97.10
26687;DHT22;14298;50.900;4.648;2022-11-24T06:39:40;7.90;97.10
26687;DHT22;14298;50.900;4.648;2022-11-24T06:42:09;7.90;97.10
26687;DHT22;14298;50.900;4.648;2022-11-24T06:44:37;7.90;97.10
26687;DHT22;14298;50.900;4.648;2022-11-24T06:47:05;7.90;97.10
26687;DHT22;14298;50.900;4.648;2022-11-24T06:49:34;7.90;97.10
26687;DHT22;14298;50.900;4.648;2022-11-24T06:52:02;7.80;97.10
26687;DHT22;14298;50.900;4.648;2022-11-24T06:54:31;7.80;97.10
26687;DHT22;14298;50.900;4.648;2022-11-24T06:56:59;7.80;97.10
26687;DHT22;14298;50.900;4.648;2022-11-24T06:59:27;7.70;97.10
26687;DHT22;14298;50.900;4.648;2022-11-24T07:01:56;7.70;97.10
26687;DHT22;14298;50.900;4.648;2022-11-24T07:04:24;7.70;97.10
26687;DHT22;14298;50.900;4.648;2022-11-24T07:06:52;7.70;97.10
26687;DHT22;14298;50.900;4.648;2022-11-24T07:09:21;7.70;97.10
26687;DHT22;14298;50.900;4.648;2022-11-24T07:11:49;7.70;97.10
26687;DHT22;14298;50.900;4.648;2022-11-24T07:14:17;7.70;97.10
26687;DHT22;14298;50.900;4.648;2022-11-24T07:16:46;7.70;97.10
26687;DHT22;14298;50.900;4.648;2022-11-24T07:19:14;7.70;97.10
26687;DHT22;14298;50.900;4.648;2022-11-24T07:21:42;7.70;97.10
26687;DHT22;14298;50.900;4.648;2022-11-24T07:24:11;7.70;97.10
26687;DHT22;14298;50.900;4.648;2022-11-24T07:26:39;7.70;97.10
26687;DHT22;14298;50.900;4.648;2022-11-24T07:29:07;7.70;97.10
26687;DHT22;14298;50.900;4.648;2022-11-24T07:31:36;7.70;97.10
26687;DHT22;14298;50.900;4.648;2022-11-24T07:34:04;7.70;97.10
26687;DHT22;14298;50.900;4.648;2022-11-24T07:36:33;7.70;97.10
26687;DHT22;14298;50.900;4.648;2022-11-24T07:39:01;7.70;97.10
26687;DHT22;14298;50.900;4.648;2022-11-24T07:41:31;7.70;97.10
26687;DHT22;14298;50.900;4.648;2022-11-24T07:44:00;7.70;97.10
26687;DHT22;14298;50.900;4.648;2022-11-24T07:46:28;7.70;97.10
26687;DHT22;14298;50.900;4.648;2022-11-24T07:48:56;7.70;97.10
26687;DHT22;14298;50.900;4.648;2022-11-24T07:51:25;7.80;97.10
26687;DHT22;14298;50.900;4.648;2022-11-24T07:56:23;7.80;97.10
26687;DHT22;14298;50.900;4.648;2022-11-24T07:58:51;7.90;97.10
26687;DHT22;14298;50.900;4.648;2022-11-24T08:01:20;7.90;97.10
26687;DHT22;14298;50.900;4.648;2022-11-24T08:03:48;7.90;97.10
26687;DHT22;14298;50.900;4.648;2022-11-24T08:06:16;8.00;97.10
26687;DHT22;14298;50.900;4.648;2022-11-24T08:08:46;8.00;97.10
26687;DHT22;14298;50.900;4.648;2022-11-24T08:11:16;8.10;97.10
26687;DHT22;14298;50.900;4.648;2022-11-24T08:13:44;8.40;97.10
26687;DHT22;14298;50.900;4.648;2022-11-24T08:16:16;8.60;97.10
26687;DHT22;14298;50.900;4.648;2022-11-24T08:18:48;8.90;97.10
26687;DHT22;14298;50.900;4.648;2022-11-24T08:21:17;9.30;97.10
26687;DHT22;14298;50.900;4.648;2022-11-24T08:23:46;9.50;97.10
26687;DHT22;14298;50.900;4.648;2022-11-24T08:26:16;9.80;97.10
26687;DHT22;14298;50.900;4.648;2022-11-24T08:28:46;10.00;97.10
26687;DHT22;14298;50.900;4.648;2022-11-24T08:31:16;10.20;97.10
26687;DHT22;14298;50.900;4.648;2022-11-24T08:33:48;10.20;97.10
26687;DHT22;14298;50.900;4.648;2022-11-24T08:36:17;10.20;97.10
26687;DHT22;14298;50.900;4.648;2022-11-24T08:38:46;10.10;97.10
26687;DHT22;14298;50.900;4.648;2022-11-24T08:41:16;10.30;97.10
26687;DHT22;14298;50.900;4.648;2022-11-24T08:43:44;10.30;97.10
26687;DHT22;14298;50.900;4.648;2022-11-24T08:46:15;10.60;97.10
26687;DHT22;14298;50.900;4.648;2022-11-24T08:48:48;10.70;97.10
26687;DHT22;14298;50.900;4.648;2022-11-24T08:51:21;11.10;97.10
26687;DHT22;14298;50.900;4.648;2022-11-24T08:53:57;11.20;97.10
26687;DHT22;14298;50.900;4.648;2022-11-24T08:56:27;11.50;97.10
26687;DHT22;14298;50.900;4.648;2022-11-24T08:58:56;11.60;97.10
26687;DHT22;14298;50.900;4.648;2022-11-24T09:01:25;11.70;97.10
26687;DHT22;14298;50.900;4.648;2022-11-24T09:03:54;11.90;97.10
26687;DHT22;14298;50.900;4.648;2022-11-24T09:06:24;11.60;97.10
26687;DHT22;14298;50.900;4.648;2022-11-24T09:08:53;10.80;97.10
26687;DHT22;14298;50.900;4.648;2022-11-24T09:11:23;10.40;97.10
26687;DHT22;14298;50.900;4.648;2022-11-24T09:13:52;10.20;97.10
26687;DHT22;14298;50.900;4.648;2022-11-24T09:16:23;10.00;97.10
26687;DHT22;14298;50.900;4.648;2022-11-24T09:18:56;9.90;97.10
26687;DHT22;14298;50.900;4.648;2022-11-24T09:21:25;9.90;97.10
26687;DHT22;14298;50.900;4.648;2022-11-24T09:23:54;9.90;97.10
26687;DHT22;14298;50.900;4.648;2022-11-24T09:26:28;9.80;97.10
26687;DHT22;14298;50.900;4.648;2022-11-24T09:28:58;9.90;97.10
26687;DHT22;14298;50.900;4.648;2022-11-24T09:31:30;9.90;97.10
26687;DHT22;14298;50.900;4.648;2022-11-24T09:34:01;9.90;97.10
26687;DHT22;14298;50.900;4.648;2022-11-24T09:36:29;9.90;97.10
26687;DHT22;14298;50.900;4.648;2022-11-24T09:38:58;9.90;97.10
26687;DHT22;14298;50.900;4.648;2022-11-24T09:49:57;10.00;97.10
26687;DHT22;14298;50.900;4.648;2022-11-24T09:52:32;10.00;97.10
26687;DHT22;14298;50.900;4.648;2022-11-24T09:54:57;10.00;97.10
26687;DHT22;14298;50.900;4.648;2022-11-24T09:57:28;10.00;97.10
26687;DHT22;14298;50.900;4.648;2022-11-24T10:00:00;10.10;97.10
26687;DHT22;14298;50.900;4.648;2022-11-24T10:02:28;10.10;97.10
26687;DHT22;14298;50.900;4.648;2022-11-24T10:04:57;10.20;97.10
26687;DHT22;14298;50.900;4.648;2022-11-24T10:07:32;10.20;97.10
26687;DHT22;14298;50.900;4.648;2022-11-24T10:10:17;10.20;97.10
26687;DHT22;14298;50.900;4.648;2022-11-24T10:15:57;10.30;97.10
26687;DHT22;14298;50.900;4.648;2022-11-24T10:18:32;10.40;97.10
26687;DHT22;14298;50.900;4.648;2022-11-24T10:24:02;10.40;97.10
26687;DHT22;14298;50.900;4.648;2022-11-24T10:26:39;10.50;97.10
26687;DHT22;14298;50.900;4.648;2022-11-24T10:29:19;10.50;97.10
26687;DHT22;14298;50.900;4.648;2022-11-24T10:31:55;10.50;97.10
26687;DHT22;14298;50.900;4.648;2022-11-24T10:34:34;10.50;97.10
26687;DHT22;14298;50.900;4.648;2022-11-24T10:42:21;10.60;97.10
26687;DHT22;14298;50.900;4.648;2022-11-24T10:44:57;10.60;97.10
26687;DHT22;14298;50.900;4.648;2022-11-24T10:47:27;10.70;97.10
26687;DHT22;14298;50.900;4.648;2022-11-24T10:50:19;10.80;97.10
26687;DHT22;14298;50.900;4.648;2022-11-24T10:53:29;10.80;97.10
26687;DHT22;14298;50.900;4.648;2022-11-24T10:55:18;10.80;97.10
26687;DHT22;14298;50.900;4.648;2022-11-24T10:57:46;10.80;97.10
26687;DHT22;14298;50.900;4.648;2022-11-24T11:02:50;10.80;97.10
26687;DHT22;14298;50.900;4.648;2022-11-24T11:05:38;10.90;97.10
26687;DHT22;14298;50.900;4.648;2022-11-24T11:08:13;10.90;97.10
26687;DHT22;14298;50.900;4.648;2022-11-24T11:10:40;10.90;97.10
26687;DHT22;14298;50.900;4.648;2022-11-24T11:13:23;11.00;97.10
26687;DHT22;14298;50.900;4.648;2022-11-24T11:15:53;11.00;97.10
26687;DHT22;14298;50.900;4.648;2022-11-24T11:18:29;11.00;97.10
26687;DHT22;14298;50.900;4.648;2022-11-24T11:20:57;11.00;97.10
26687;DHT22;14298;50.900;4.648;2022-11-24T11:23:32;11.00;97.10
26687;DHT22;14298;50.900;4.648;2022-11-24T11:26:30;11.00;97.10
26687;DHT22;14298;50.900;4.648;2022-11-24T11:31:32;11.00;97.10
26687;DHT22;14298;50.900;4.648;2022-11-24T11:34:12;11.00;97.10
26687;DHT22;14298;50.900;4.648;2022-11-24T11:36:48;11.10;97.10
26687;DHT22;14298;50.900;4.648;2022-11-24T11:39:25;11.10;97.10
26687;DHT22;14298;50.900;4.648;2022-11-24T11:41:58;11.10;97.10
26687;DHT22;14298;50.900;4.648;2022-11-24T11:44:37;11.00;97.10
26687;DHT22;14298;50.900;4.648;2022-11-24T11:47:12;11.00;97.10
26687;DHT22;14298;50.900;4.648;2022-11-24T11:49:39;11.00;97.10
26687;DHT22;14298;50.900;4.648;2022-11-24T11:55:19;11.00;97.10
26687;DHT22;14298;50.900;4.648;2022-11-24T11:57:50;11.10;97.10
26687;DHT22;14298;50.900;4.648;2022-11-24T12:00:38;11.10;97.10
26687;DHT22;14298;50.900;4.648;2022-11-24T12:11:04;11.20;97.10
26687;DHT22;14298;50.900;4.648;2022-11-24T12:19:15;11.20;97.10
26687;DHT22;14298;50.900;4.648;2022-11-24T12:24:47;11.30;97.10
26687;DHT22;14298;50.900;4.648;2022-11-24T12:27:24;11.30;97.10
26687;DHT22;14298;50.900;4.648;2022-11-24T12:30:02;11.20;97.10
26687;DHT22;14298;50.900;4.648;2022-11-24T12:35:41;11.20;97.10
26687;DHT22;14298;50.900;4.648;2022-11-24T12:38:26;11.10;97.10
26687;DHT22;14298;50.900;4.648;2022-11-24T12:41:12;11.10;97.10
26687;DHT22;14298;50.900;4.648;2022-11-24T12:43:40;11.10;97.10
26687;DHT22;14298;50.900;4.648;2022-11-24T12:46:37;11.00;97.10
26687;DHT22;14298;50.900;4.648;2022-11-24T12:49:25;11.00;97.10
26687;DHT22;14298;50.900;4.648;2022-11-24T12:51:56;11.10;97.10
26687;DHT22;14298;50.900;4.648;2022-11-24T12:54:24;11.20;97.10
26687;DHT22;14298;50.900;4.648;2022-11-24T12:57:04;11.30;97.10
26687;DHT22;14298;50.900;4.648;2022-11-24T13:08:09;11.40;97.10
26687;DHT22;14298;50.900;4.648;2022-11-24T13:10:38;11.40;97.10
26687;DHT22;14298;50.900;4.648;2022-11-24T13:13:09;11.40;97.10
26687;DHT22;14298;50.900;4.648;2022-11-24T13:18:55;11.30;97.10
26687;DHT22;14298;50.900;4.648;2022-11-24T13:26:47;11.20;97.10
26687;DHT22;14298;50.900;4.648;2022-11-24T13:29:35;11.20;97.10
26687;DHT22;14298;50.900;4.648;2022-11-24T13:39:57;11.20;97.10
26687;DHT22;14298;50.900;4.648;2022-11-24T13:42:30;11.20;97.10
26687;DHT22;14298;50.900;4.648;2022-11-24T13:44:59;11.20;97.10
26687;DHT22;14298;50.900;4.648;2022-11-24T13:47:30;11.10;97.10
26687;DHT22;14298;50.900;4.648;2022-11-24T13:50:01;11.10;97.10
26687;DHT22;14298;50.900;4.648;2022-11-24T13:52:41;11.10;97.10
26687;DHT22;14298;50.900;4.648;2022-11-24T13:57:50;11.00;97.10
26687;DHT22;14298;50.900;4.648;2022-11-24T14:00:34;11.00;97.10
26687;DHT22;14298;50.900;4.648;2022-11-24T14:03:23;11.00;97.10
26687;DHT22;14298;50.900;4.648;2022-11-24T14:05:50;10.90;97.10
26687;DHT22;14298;50.900;4.648;2022-11-24T14:08:32;10.90;97.10
26687;DHT22;14298;50.900;4.648;2022-11-24T14:10:58;10.80;97.10
26687;DHT22;14298;50.900;4.648;2022-11-24T14:13:31;10.80;97.10
26687;DHT22;14298;50.900;4.648;2022-11-24T14:16:05;10.80;97.10
26687;DHT22;14298;50.900;4.648;2022-11-24T14:18:37;10.70;97.10
26687;DHT22;14298;50.900;4.648;2022-11-24T14:21:21;10.70;97.10
26687;DHT22;14298;50.900;4.648;2022-11-24T14:24:24;10.70;97.10
26687;DHT22;14298;50.900;4.648;2022-11-24T14:26:48;10.70;97.10
26687;DHT22;14298;50.900;4.648;2022-11-24T14:29:19;10.70;97.10
26687;DHT22;14298;50.900;4.648;2022-11-24T14:31:59;10.60;97.10
26687;DHT22;14298;50.900;4.648;2022-11-24T14:34:24;10.60;97.10
26687;DHT22;14298;50.900;4.648;2022-11-24T14:36:54;10.60;97.10
26687;DHT22;14298;50.900;4.648;2022-11-24T14:39:26;10.50;97.10
26687;DHT22;14298;50.900;4.648;2022-11-24T14:44:59;10.50;97.10
26687;DHT22;14298;50.900;4.648;2022-11-24T14:47:37;10.40;97.10
26687;DHT22;14298;50.900;4.648;2022-11-24T14:52:44;10.40;97.10
26687;DHT22;14298;50.900;4.648;2022-11-24T14:55:28;10.40;97.10
26687;DHT22;14298;50.900;4.648;2022-11-24T14:57:57;10.40;97.10
26687;DHT22;14298;50.900;4.648;2022-11-24T15:00:32;10.40;97.10
26687;DHT22;14298;50.900;4.648;2022-11-24T15:03:17;10.30;97.10
26687;DHT22;14298;50.900;4.648;2022-11-24T15:05:57;10.30;97.10
26687;DHT22;14298;50.900;4.648;2022-11-24T15:08:36;10.20;97.10
26687;DHT22;14298;50.900;4.648;2022-11-24T15:11:05;10.10;97.10
26687;DHT22;14298;50.900;4.648;2022-11-24T15:13:36;10.10;97.10
26687;DHT22;14298;50.900;4.648;2022-11-24T15:16:16;10.00;97.10
26687;DHT22;14298;50.900;4.648;2022-11-24T15:18:47;10.00;97.10
26687;DHT22;14298;50.900;4.648;2022-11-24T15:21:28;9.90;97.10
26687;DHT22;14298;50.900;4.648;2022-11-24T15:24:16;9.90;97.10
26687;DHT22;14298;50.900;4.648;2022-11-24T15:26:45;9.90;97.10
26687;DHT22;14298;50.900;4.648;2022-11-24T15:29:13;9.90;97.10
26687;DHT22;14298;50.900;4.648;2022-11-24T15:31:42;9.80;97.10
26687;DHT22;14298;50.900;4.648;2022-11-24T15:34:12;9.80;97.10
26687;DHT22;14298;50.900;4.648;2022-11-24T15:36:40;9.80;97.10
26687;DHT22;14298;50.900;4.648;2022-11-24T15:39:09;9.90;97.10
26687;DHT22;14298;50.900;4.648;2022-11-24T15:41:37;9.80;97.10
26687;DHT22;14298;50.900;4.648;2022-11-24T15:44:08;9.80;97.10
26687;DHT22;14298;50.900;4.648;2022-11-24T15:46:37;9.80;97.10
26687;DHT22;14298;50.900;4.648;2022-11-24T15:49:06;9.80;97.10
26687;DHT22;14298;50.900;4.648;2022-11-24T15:51:35;9.70;97.10
26687;DHT22;14298;50.900;4.648;2022-11-24T15:54:04;9.70;97.10
26687;DHT22;14298;50.900;4.648;2022-11-24T15:56:35;9.70;97.10
26687;DHT22;14298;50.900;4.648;2022-11-24T15:59:05;9.60;97.10
26687;DHT22;14298;50.900;4.648;2022-11-24T16:01:33;9.60;97.10
26687;DHT22;14298;50.900;4.648;2022-11-24T16:04:01;9.60;97.10
26687;DHT22;14298;50.900;4.648;2022-11-24T16:06:30;9.60;97.10
26687;DHT22;14298;50.900;4.648;2022-11-24T16:08:59;9.70;97.10
26687;DHT22;14298;50.900;4.648;2022-11-24T16:11:27;9.60;97.10
26687;DHT22;14298;50.900;4.648;2022-11-24T16:13:55;9.50;97.10
26687;DHT22;14298;50.900;4.648;2022-11-24T16:16:24;9.50;97.10
26687;DHT22;14298;50.900;4.648;2022-11-24T16:18:52;9.50;97.10
26687;DHT22;14298;50.900;4.648;2022-11-24T16:21:20;9.40;97.10
26687;DHT22;14298;50.900;4.648;2022-11-24T16:23:49;9.30;97.10
26687;DHT22;14298;50.900;4.648;2022-11-24T16:26:18;9.30;97.10
26687;DHT22;14298;50.900;4.648;2022-11-24T16:28:46;9.30;97.10
26687;DHT22;14298;50.900;4.648;2022-11-24T16:31:34;9.20;97.10
26687;DHT22;14298;50.900;4.648;2022-11-24T16:34:02;9.20;97.10
26687;DHT22;14298;50.900;4.648;2022-11-24T16:36:31;9.10;97.10
26687;DHT22;14298;50.900;4.648;2022-11-24T16:38:59;9.10;97.10
26687;DHT22;14298;50.900;4.648;2022-11-24T16:41:27;9.20;97.10
26687;DHT22;14298;50.900;4.648;2022-11-24T16:43:56;9.10;97.10
26687;DHT22;14298;50.900;4.648;2022-11-24T16:46:26;9.10;97.10
26687;DHT22;14298;50.900;4.648;2022-11-24T16:48:56;9.20;97.10
26687;DHT22;14298;50.900;4.648;2022-11-24T16:51:26;9.20;97.10
26687;DHT22;14298;50.900;4.648;2022-11-24T16:54:00;9.20;97.10
26687;DHT22;14298;50.900;4.648;2022-11-24T16:56:29;9.20;97.10
26687;DHT22;14298;50.900;4.648;2022-11-24T16:58:58;9.10;97.10
26687;DHT22;14298;50.900;4.648;2022-11-24T17:01:26;9.10;97.10
26687;DHT22;14298;50.900;4.648;2022-11-24T17:03:56;9.10;97.10
26687;DHT22;14298;50.900;4.648;2022-11-24T17:06:25;9.00;97.10
26687;DHT22;14298;50.900;4.648;2022-11-24T17:08:54;9.00;97.10
26687;DHT22;14298;50.900;4.648;2022-11-24T17:11:24;8.90;97.10
26687;DHT22;14298;50.900;4.648;2022-11-24T17:13:54;8.90;97.10
26687;DHT22;14298;50.900;4.648;2022-11-24T17:16:24;9.00;97.10
26687;DHT22;14298;50.900;4.648;2022-11-24T17:18:53;9.00;97.10
26687;DHT22;14298;50.900;4.648;2022-11-24T17:21:23;8.90;97.10
26687;DHT22;14298;50.900;4.648;2022-11-24T17:23:56;8.90;97.10
26687;DHT22;14298;50.900;4.648;2022-11-24T17:26:25;8.90;97.10
26687;DHT22;14298;50.900;4.648;2022-11-24T17:28:54;8.80;97.10
26687;DHT22;14298;50.900;4.648;2022-11-24T17:31:25;8.80;97.10
26687;DHT22;14298;50.900;4.648;2022-11-24T17:33:55;8.70;97.10